sensor_id;sensor_type;location;lat;lon;timestamp;pressure;altitude;pressure_sealevel;temperature;humidity
6530;BME280;3298;42.688;23.366;2023-03-18T00:02:01;51741.66;;;-145.06;67.79
6530;BME280;3298;42.688;23.366;2023-03-18T00:04:28;51729.38;;;-145.06;67.36
6530;BME280;3298;42.688;23.366;2023-03-18T00:06:57;51721.19;;;-145.06;66.83
6530;BME280;3298;42.688;23.366;2023-03-18T00:09:25;51735.50;;;-145.06;67.12
6530;BME280;3298;42.688;23.366;2023-03-18T00:11:52;51725.28;;;-145.06;66.19
6530;BME280;3298;42.688;23.366;2023-03-18T00:14:21;51751.88;;;-145.06;67.34
6530;BME280;3298;42.688;23.366;2023-03-18T00:16:48;51733.47;;;-145.06;67.22
6530;BME280;3298;42.688;23.366;2023-03-18T00:19:15;51733.47;;;-145.06;66.98
6530;BME280;3298;42.688;23.366;2023-03-18T00:21:43;51713.00;;;-145.06;67.75
6530;BME280;3298;42.688;23.366;2023-03-18T00:24:10;51739.59;;;-145.06;67.99
6530;BME280;3298;42.688;23.366;2023-03-18T00:26:38;51729.38;;;-145.06;67.40
6530;BME280;3298;42.688;23.366;2023-03-18T00:29:05;51725.28;;;-145.06;67.63
6530;BME280;3298;42.688;23.366;2023-03-18T00:31:32;51743.69;;;-145.06;67.74
6530;BME280;3298;42.688;23.366;2023-03-18T00:33:58;51733.47;;;-145.06;67.77
6530;BME280;3298;42.688;23.366;2023-03-18T00:36:25;51719.13;;;-145.06;67.42
6530;BME280;3298;42.688;23.366;2023-03-18T00:38:53;51749.84;;;-145.06;66.98
6530;BME280;3298;42.688;23.366;2023-03-18T00:41:23;51745.75;;;-145.06;67.75
6530;BME280;3298;42.688;23.366;2023-03-18T00:43:52;51692.53;;;-145.06;67.86
6530;BME280;3298;42.688;23.366;2023-03-18T00:46:21;51723.22;;;-145.06;68.39
6530;BME280;3298;42.688;23.366;2023-03-18T00:48:49;51721.19;;;-145.06;68.82
6530;BME280;3298;42.688;23.366;2023-03-18T00:51:18;51741.66;;;-145.06;69.11
6530;BME280;3298;42.688;23.366;2023-03-18T00:53:51;51696.63;;;-145.06;69.02
6530;BME280;3298;42.688;23.366;2023-03-18T00:56:20;51733.47;;;-145.06;69.23
6530;BME280;3298;42.688;23.366;2023-03-18T00:58:49;51743.69;;;-145.06;69.09
6530;BME280;3298;42.688;23.366;2023-03-18T01:01:18;51680.25;;;-145.06;69.14
6530;BME280;3298;42.688;23.366;2023-03-18T01:03:46;51715.03;;;-145.06;68.93
6530;BME280;3298;42.688;23.366;2023-03-18T01:06:15;51743.69;;;-145.06;68.92
6530;BME280;3298;42.688;23.366;2023-03-18T01:08:42;51751.88;;;-145.06;68.62
6530;BME280;3298;42.688;23.366;2023-03-18T01:11:10;51710.94;;;-145.06;68.46
6530;BME280;3298;42.688;23.366;2023-03-18T01:13:38;51745.75;;;-145.06;69.24
6530;BME280;3298;42.688;23.366;2023-03-18T01:16:06;51723.22;;;-145.06;68.92
6530;BME280;3298;42.688;23.366;2023-03-18T01:18:35;51725.28;;;-145.06;69.57
6530;BME280;3298;42.688;23.366;2023-03-18T01:21:02;51723.22;;;-145.06;70.04
6530;BME280;3298;42.688;23.366;2023-03-18T01:23:29;51710.94;;;-145.06;69.43
6530;BME280;3298;42.688;23.366;2023-03-18T01:25:56;51721.19;;;-145.06;68.59
6530;BME280;3298;42.688;23.366;2023-03-18T01:28:24;51731.41;;;-145.06;69.20
6530;BME280;3298;42.688;23.366;2023-03-18T01:30:51;51737.56;;;-145.06;68.89
6530;BME280;3298;42.688;23.366;2023-03-18T01:33:19;51717.09;;;-145.06;69.14
6530;BME280;3298;42.688;23.366;2023-03-18T01:35:52;51743.69;;;-145.06;68.83
6530;BME280;3298;42.688;23.366;2023-03-18T01:38:20;51725.28;;;-145.06;69.10
6530;BME280;3298;42.688;23.366;2023-03-18T01:40:48;51717.09;;;-145.06;69.39
6530;BME280;3298;42.688;23.366;2023-03-18T01:43:18;51733.47;;;-145.06;69.07
6530;BME280;3298;42.688;23.366;2023-03-18T01:45:48;51731.41;;;-145.06;69.29
6530;BME280;3298;42.688;23.366;2023-03-18T01:48:17;51745.75;;;-145.06;68.35
6530;BME280;3298;42.688;23.366;2023-03-18T01:50:48;51708.91;;;-145.06;68.09
6530;BME280;3298;42.688;23.366;2023-03-18T01:53:17;51733.47;;;-145.06;68.26
6530;BME280;3298;42.688;23.366;2023-03-18T01:55:47;51678.19;;;-145.06;68.34
6530;BME280;3298;42.688;23.366;2023-03-18T01:58:23;51725.28;;;-145.06;67.88
6530;BME280;3298;42.688;23.366;2023-03-18T02:00:56;51731.41;;;-145.06;68.41
6530;BME280;3298;42.688;23.366;2023-03-18T02:03:25;51721.19;;;-145.06;68.57
6530;BME280;3298;42.688;23.366;2023-03-18T02:05:55;51758.03;;;-145.06;68.75
6530;BME280;3298;42.688;23.366;2023-03-18T02:08:22;51743.69;;;-145.06;67.68
6530;BME280;3298;42.688;23.366;2023-03-18T02:10:49;51749.84;;;-145.06;68.68
6530;BME280;3298;42.688;23.366;2023-03-18T02:13:16;51741.66;;;-145.06;69.43
6530;BME280;3298;42.688;23.366;2023-03-18T02:15:46;51725.28;;;-145.06;69.39
6530;BME280;3298;42.688;23.366;2023-03-18T02:18:18;51735.50;;;-145.06;69.09
6530;BME280;3298;42.688;23.366;2023-03-18T02:21:02;51713.00;;;-145.06;69.63
6530;BME280;3298;42.688;23.366;2023-03-18T02:23:39;51715.03;;;-145.06;68.86
6530;BME280;3298;42.688;23.366;2023-03-18T02:26:12;51721.19;;;-145.06;68.18
6530;BME280;3298;42.688;23.366;2023-03-18T02:28:44;51717.09;;;-145.06;67.71
6530;BME280;3298;42.688;23.366;2023-03-18T02:31:14;51733.47;;;-145.06;67.72
6530;BME280;3298;42.688;23.366;2023-03-18T02:33:43;51737.56;;;-145.06;67.56
6530;BME280;3298;42.688;23.366;2023-03-18T02:36:13;51731.41;;;-145.06;68.26
6530;BME280;3298;42.688;23.366;2023-03-18T02:38:44;51725.28;;;-145.06;68.45
6530;BME280;3298;42.688;23.366;2023-03-18T02:41:16;51733.47;;;-145.06;67.82
6530;BME280;3298;42.688;23.366;2023-03-18T02:43:45;51737.56;;;-145.06;68.18
6530;BME280;3298;42.688;23.366;2023-03-18T02:46:35;51717.09;;;-145.06;68.20
6530;BME280;3298;42.688;23.366;2023-03-18T02:49:05;51719.13;;;-145.06;67.75
6530;BME280;3298;42.688;23.366;2023-03-18T02:51:33;51723.22;;;-145.06;67.92
6530;BME280;3298;42.688;23.366;2023-03-18T02:54:04;51719.13;;;-145.06;67.83
6530;BME280;3298;42.688;23.366;2023-03-18T02:56:32;51733.47;;;-145.06;67.65
6530;BME280;3298;42.688;23.366;2023-03-18T02:59:00;51721.19;;;-145.06;67.46
6530;BME280;3298;42.688;23.366;2023-03-18T03:01:27;51721.19;;;-145.06;67.53
6530;BME280;3298;42.688;23.366;2023-03-18T03:03:54;51713.00;;;-145.06;68.08
6530;BME280;3298;42.688;23.366;2023-03-18T03:06:21;51725.28;;;-145.06;67.83
6530;BME280;3298;42.688;23.366;2023-03-18T03:08:48;51713.00;;;-145.06;68.13
6530;BME280;3298;42.688;23.366;2023-03-18T03:11:16;51692.53;;;-145.06;67.23
6530;BME280;3298;42.688;23.366;2023-03-18T03:13:44;51688.44;;;-145.06;67.64
6530;BME280;3298;42.688;23.366;2023-03-18T03:16:13;51729.38;;;-145.06;68.11
6530;BME280;3298;42.688;23.366;2023-03-18T03:18:41;51717.09;;;-145.06;68.11
6530;BME280;3298;42.688;23.366;2023-03-18T03:21:08;51713.00;;;-145.06;68.18
6530;BME280;3298;42.688;23.366;2023-03-18T03:23:36;51717.09;;;-145.06;68.39
6530;BME280;3298;42.688;23.366;2023-03-18T03:26:04;51706.84;;;-145.06;68.50
6530;BME280;3298;42.688;23.366;2023-03-18T03:28:31;51737.56;;;-145.06;68.44
6530;BME280;3298;42.688;23.366;2023-03-18T03:30:59;51713.00;;;-145.06;67.57
6530;BME280;3298;42.688;23.366;2023-03-18T03:33:27;51725.28;;;-145.06;67.68
6530;BME280;3298;42.688;23.366;2023-03-18T03:35:54;51747.78;;;-145.06;68.90
6530;BME280;3298;42.688;23.366;2023-03-18T03:38:22;51717.09;;;-145.06;68.98
6530;BME280;3298;42.688;23.366;2023-03-18T03:40:49;51731.41;;;-145.06;69.02
6530;BME280;3298;42.688;23.366;2023-03-18T03:43:17;51729.38;;;-145.06;68.94
6530;BME280;3298;42.688;23.366;2023-03-18T03:45:43;51733.47;;;-145.06;69.87
6530;BME280;3298;42.688;23.366;2023-03-18T03:48:10;51729.38;;;-145.06;69.73
6530;BME280;3298;42.688;23.366;2023-03-18T03:50:40;51721.19;;;-145.06;69.93
6530;BME280;3298;42.688;23.366;2023-03-18T03:53:07;51723.22;;;-145.06;69.58
6530;BME280;3298;42.688;23.366;2023-03-18T03:55:35;51708.91;;;-145.06;69.21
6530;BME280;3298;42.688;23.366;2023-03-18T03:58:02;51721.19;;;-145.06;68.52
6530;BME280;3298;42.688;23.366;2023-03-18T04:00:29;51704.81;;;-145.06;67.62
6530;BME280;3298;42.688;23.366;2023-03-18T04:02:57;51729.38;;;-145.06;66.74
6530;BME280;3298;42.688;23.366;2023-03-18T04:05:24;51725.28;;;-145.06;66.69
6530;BME280;3298;42.688;23.366;2023-03-18T04:07:52;51715.03;;;-145.06;67.28
6530;BME280;3298;42.688;23.366;2023-03-18T04:10:20;51723.22;;;-145.06;67.83
6530;BME280;3298;42.688;23.366;2023-03-18T04:12:48;51729.38;;;-145.06;66.98
6530;BME280;3298;42.688;23.366;2023-03-18T04:15:16;51713.00;;;-145.06;67.29
6530;BME280;3298;42.688;23.366;2023-03-18T04:17:44;51684.34;;;-145.06;67.82
6530;BME280;3298;42.688;23.366;2023-03-18T04:20:11;51747.78;;;-145.06;68.37
6530;BME280;3298;42.688;23.366;2023-03-18T04:22:39;51719.13;;;-145.06;68.34
6530;BME280;3298;42.688;23.366;2023-03-18T04:25:08;51729.38;;;-145.06;67.52
6530;BME280;3298;42.688;23.366;2023-03-18T04:27:36;51745.75;;;-145.06;67.48
6530;BME280;3298;42.688;23.366;2023-03-18T04:30:06;51725.28;;;-145.06;68.39
6530;BME280;3298;42.688;23.366;2023-03-18T04:32:33;51723.22;;;-145.06;68.29
6530;BME280;3298;42.688;23.366;2023-03-18T04:35:00;51698.66;;;-145.06;68.36
6530;BME280;3298;42.688;23.366;2023-03-18T04:37:27;51717.09;;;-145.06;68.47
6530;BME280;3298;42.688;23.366;2023-03-18T04:39:54;51725.28;;;-145.06;68.60
6530;BME280;3298;42.688;23.366;2023-03-18T04:42:24;51739.59;;;-145.06;68.29
6530;BME280;3298;42.688;23.366;2023-03-18T04:44:50;51753.94;;;-145.06;68.68
6530;BME280;3298;42.688;23.366;2023-03-18T04:47:17;51708.91;;;-145.06;68.50
6530;BME280;3298;42.688;23.366;2023-03-18T04:49:44;51745.75;;;-145.06;68.12
6530;BME280;3298;42.688;23.366;2023-03-18T04:52:11;51721.19;;;-145.06;67.61
6530;BME280;3298;42.688;23.366;2023-03-18T04:54:38;51715.03;;;-145.06;66.70
6530;BME280;3298;42.688;23.366;2023-03-18T04:57:05;51713.00;;;-145.06;66.72
6530;BME280;3298;42.688;23.366;2023-03-18T04:59:33;51766.22;;;-145.06;67.15
6530;BME280;3298;42.688;23.366;2023-03-18T05:02:00;51739.59;;;-145.06;67.23
6530;BME280;3298;42.688;23.366;2023-03-18T05:04:27;51729.38;;;-145.06;67.67
6530;BME280;3298;42.688;23.366;2023-03-18T05:06:53;51737.56;;;-145.06;67.48
6530;BME280;3298;42.688;23.366;2023-03-18T05:09:20;51749.84;;;-145.06;67.54
6530;BME280;3298;42.688;23.366;2023-03-18T05:11:48;51733.47;;;-145.06;67.38
6530;BME280;3298;42.688;23.366;2023-03-18T05:14:14;51745.75;;;-145.06;67.28
6530;BME280;3298;42.688;23.366;2023-03-18T05:16:43;51729.38;;;-145.06;67.71
6530;BME280;3298;42.688;23.366;2023-03-18T05:19:10;51733.47;;;-145.06;66.99
6530;BME280;3298;42.688;23.366;2023-03-18T05:21:37;51700.72;;;-145.06;66.84
6530;BME280;3298;42.688;23.366;2023-03-18T05:24:04;51729.38;;;-145.06;66.16
6530;BME280;3298;42.688;23.366;2023-03-18T05:26:31;51713.00;;;-145.06;66.26
6530;BME280;3298;42.688;23.366;2023-03-18T05:28:58;51737.56;;;-145.06;66.22
6530;BME280;3298;42.688;23.366;2023-03-18T05:31:25;51727.31;;;-145.06;66.18
6530;BME280;3298;42.688;23.366;2023-03-18T05:33:53;51735.50;;;-145.06;66.01
6530;BME280;3298;42.688;23.366;2023-03-18T05:36:20;51721.19;;;-145.06;66.28
6530;BME280;3298;42.688;23.366;2023-03-18T05:38:46;51743.69;;;-145.06;65.76
6530;BME280;3298;42.688;23.366;2023-03-18T05:41:13;51715.03;;;-145.06;65.40
6530;BME280;3298;42.688;23.366;2023-03-18T05:43:40;51733.47;;;-145.06;65.91
6530;BME280;3298;42.688;23.366;2023-03-18T05:46:07;51764.16;;;-145.06;65.35
6530;BME280;3298;42.688;23.366;2023-03-18T05:48:33;51733.47;;;-145.06;64.93
6530;BME280;3298;42.688;23.366;2023-03-18T05:51:03;51741.66;;;-145.06;64.86
6530;BME280;3298;42.688;23.366;2023-03-18T05:53:30;51733.47;;;-145.06;64.15
6530;BME280;3298;42.688;23.366;2023-03-18T05:55:57;51721.19;;;-145.06;63.71
6530;BME280;3298;42.688;23.366;2023-03-18T05:58:24;51708.91;;;-145.06;63.46
6530;BME280;3298;42.688;23.366;2023-03-18T06:00:55;51708.91;;;-145.06;62.60
6530;BME280;3298;42.688;23.366;2023-03-18T06:03:23;51704.81;;;-145.06;62.04
6530;BME280;3298;42.688;23.366;2023-03-18T06:05:50;51713.00;;;-145.06;61.59
6530;BME280;3298;42.688;23.366;2023-03-18T06:08:19;51743.69;;;-145.06;60.84
6530;BME280;3298;42.688;23.366;2023-03-18T06:10:47;51706.84;;;-145.06;60.62
6530;BME280;3298;42.688;23.366;2023-03-18T06:13:13;51702.75;;;-145.06;60.29
6530;BME280;3298;42.688;23.366;2023-03-18T06:15:40;51737.56;;;-145.06;59.74
6530;BME280;3298;42.688;23.366;2023-03-18T06:18:07;51715.03;;;-145.06;59.29
6530;BME280;3298;42.688;23.366;2023-03-18T06:20:34;51727.31;;;-145.06;59.33
6530;BME280;3298;42.688;23.366;2023-03-18T06:23:01;51713.00;;;-145.06;58.87
6530;BME280;3298;42.688;23.366;2023-03-18T06:25:30;51741.66;;;-145.06;58.86
6530;BME280;3298;42.688;23.366;2023-03-18T06:27:57;51733.47;;;-145.06;59.12
6530;BME280;3298;42.688;23.366;2023-03-18T06:30:23;51729.38;;;-145.06;59.59
6530;BME280;3298;42.688;23.366;2023-03-18T06:32:50;51729.38;;;-145.06;59.30
6530;BME280;3298;42.688;23.366;2023-03-18T06:35:17;51739.59;;;-145.06;60.00
6530;BME280;3298;42.688;23.366;2023-03-18T06:37:44;51721.19;;;-145.06;60.50
6530;BME280;3298;42.688;23.366;2023-03-18T06:40:11;51725.28;;;-145.06;60.26
6530;BME280;3298;42.688;23.366;2023-03-18T06:42:40;51713.00;;;-145.06;60.18
6530;BME280;3298;42.688;23.366;2023-03-18T06:45:07;51719.13;;;-145.06;60.40
6530;BME280;3298;42.688;23.366;2023-03-18T06:47:35;51725.28;;;-145.06;60.47
6530;BME280;3298;42.688;23.366;2023-03-18T06:50:01;51719.13;;;-145.06;59.82
6530;BME280;3298;42.688;23.366;2023-03-18T06:52:28;51733.47;;;-145.06;59.75
6530;BME280;3298;42.688;23.366;2023-03-18T06:54:55;51739.59;;;-145.06;59.17
6530;BME280;3298;42.688;23.366;2023-03-18T06:57:22;51725.28;;;-145.06;59.43
6530;BME280;3298;42.688;23.366;2023-03-18T06:59:50;51729.38;;;-145.06;59.14
6530;BME280;3298;42.688;23.366;2023-03-18T07:02:18;51713.00;;;-145.06;59.79
6530;BME280;3298;42.688;23.366;2023-03-18T07:04:47;51723.22;;;-145.06;59.33
6530;BME280;3298;42.688;23.366;2023-03-18T07:07:15;51717.09;;;-145.06;59.48
6530;BME280;3298;42.688;23.366;2023-03-18T07:09:42;51733.47;;;-145.06;59.38
6530;BME280;3298;42.688;23.366;2023-03-18T07:12:11;51721.19;;;-145.06;58.93
6530;BME280;3298;42.688;23.366;2023-03-18T07:14:39;51762.13;;;-145.06;58.51
6530;BME280;3298;42.688;23.366;2023-03-18T07:17:08;51713.00;;;-145.06;58.64
6530;BME280;3298;42.688;23.366;2023-03-18T07:19:35;51708.91;;;-145.06;58.43
6530;BME280;3298;42.688;23.366;2023-03-18T07:22:02;51727.31;;;-145.06;58.54
6530;BME280;3298;42.688;23.366;2023-03-18T07:24:30;51729.38;;;-145.06;59.20
6530;BME280;3298;42.688;23.366;2023-03-18T07:26:56;51729.38;;;-145.06;59.81
6530;BME280;3298;42.688;23.366;2023-03-18T07:29:23;51731.41;;;-145.06;59.58
6530;BME280;3298;42.688;23.366;2023-03-18T07:31:50;51719.13;;;-145.06;59.48
6530;BME280;3298;42.688;23.366;2023-03-18T07:34:18;51741.66;;;-145.06;59.33
6530;BME280;3298;42.688;23.366;2023-03-18T07:36:45;51735.50;;;-145.06;59.80
6530;BME280;3298;42.688;23.366;2023-03-18T07:39:12;51725.28;;;-145.06;59.96
6530;BME280;3298;42.688;23.366;2023-03-18T07:41:39;51745.75;;;-145.06;59.86
6530;BME280;3298;42.688;23.366;2023-03-18T07:44:06;51751.88;;;-145.06;59.71
6530;BME280;3298;42.688;23.366;2023-03-18T07:46:33;51723.22;;;-145.06;59.57
6530;BME280;3298;42.688;23.366;2023-03-18T07:49:00;51735.50;;;-145.06;59.09
6530;BME280;3298;42.688;23.366;2023-03-18T07:51:28;51704.81;;;-145.06;58.83
6530;BME280;3298;42.688;23.366;2023-03-18T07:53:56;51747.78;;;-145.06;58.20
6530;BME280;3298;42.688;23.366;2023-03-18T07:56:23;51737.56;;;-145.06;58.81
6530;BME280;3298;42.688;23.366;2023-03-18T07:58:50;51739.59;;;-145.06;57.99
6530;BME280;3298;42.688;23.366;2023-03-18T08:01:17;51733.47;;;-145.06;58.20
6530;BME280;3298;42.688;23.366;2023-03-18T08:03:44;51737.56;;;-145.06;58.38
6530;BME280;3298;42.688;23.366;2023-03-18T08:06:12;51723.22;;;-145.06;58.62
6530;BME280;3298;42.688;23.366;2023-03-18T08:08:41;51729.38;;;-145.06;58.10
6530;BME280;3298;42.688;23.366;2023-03-18T08:11:09;51815.34;;;-145.06;57.29
6530;BME280;3298;42.688;23.366;2023-03-18T08:13:36;51741.66;;;-145.06;57.31
6530;BME280;3298;42.688;23.366;2023-03-18T08:16:04;51725.28;;;-145.06;56.86
6530;BME280;3298;42.688;23.366;2023-03-18T08:18:31;51719.13;;;-145.06;56.71
6530;BME280;3298;42.688;23.366;2023-03-18T08:20:58;51745.75;;;-145.06;56.10
6530;BME280;3298;42.688;23.366;2023-03-18T08:23:25;51739.59;;;-145.06;56.29
6530;BME280;3298;42.688;23.366;2023-03-18T08:25:53;51743.69;;;-145.06;56.54
6530;BME280;3298;42.688;23.366;2023-03-18T08:28:20;51758.03;;;-145.06;56.94
6530;BME280;3298;42.688;23.366;2023-03-18T08:30:52;51717.09;;;-145.06;56.44
6530;BME280;3298;42.688;23.366;2023-03-18T08:33:20;51749.84;;;-145.06;56.76
6530;BME280;3298;42.688;23.366;2023-03-18T08:35:47;51733.47;;;-145.06;56.14
6530;BME280;3298;42.688;23.366;2023-03-18T08:38:13;51751.88;;;-145.06;55.36
6530;BME280;3298;42.688;23.366;2023-03-18T08:40:41;51713.00;;;-145.06;55.12
6530;BME280;3298;42.688;23.366;2023-03-18T08:43:09;51729.38;;;-145.06;54.95
6530;BME280;3298;42.688;23.366;2023-03-18T08:45:36;51741.66;;;-145.06;54.62
6530;BME280;3298;42.688;23.366;2023-03-18T08:48:04;51743.69;;;-145.06;54.37
6530;BME280;3298;42.688;23.366;2023-03-18T08:50:33;51739.59;;;-145.06;54.32
6530;BME280;3298;42.688;23.366;2023-03-18T08:53:00;51749.84;;;-145.06;55.02
6530;BME280;3298;42.688;23.366;2023-03-18T08:55:28;51737.56;;;-145.06;53.71
6530;BME280;3298;42.688;23.366;2023-03-18T08:57:56;51725.28;;;-145.06;54.05
6530;BME280;3298;42.688;23.366;2023-03-18T09:00:25;51753.94;;;-145.06;53.08
6530;BME280;3298;42.688;23.366;2023-03-18T09:02:52;51737.56;;;-145.06;53.19
6530;BME280;3298;42.688;23.366;2023-03-18T09:05:19;51735.50;;;-145.06;51.59
6530;BME280;3298;42.688;23.366;2023-03-18T09:07:46;51753.94;;;-145.06;50.71
6530;BME280;3298;42.688;23.366;2023-03-18T09:10:13;51737.56;;;-145.06;50.26
6530;BME280;3298;42.688;23.366;2023-03-18T09:12:42;51743.69;;;-145.06;50.34
6530;BME280;3298;42.688;23.366;2023-03-18T09:15:11;51770.31;;;-145.06;49.37
6530;BME280;3298;42.688;23.366;2023-03-18T09:17:39;51729.38;;;-145.06;48.22
6530;BME280;3298;42.688;23.366;2023-03-18T09:20:08;51753.94;;;-145.06;47.80
6530;BME280;3298;42.688;23.366;2023-03-18T09:22:37;51739.59;;;-145.06;47.52
6530;BME280;3298;42.688;23.366;2023-03-18T09:25:05;51739.59;;;-145.06;47.05
6530;BME280;3298;42.688;23.366;2023-03-18T09:27:32;51747.78;;;-145.06;47.32
6530;BME280;3298;42.688;23.366;2023-03-18T09:29:59;51741.66;;;-145.06;46.76
6530;BME280;3298;42.688;23.366;2023-03-18T09:32:26;51729.38;;;-145.06;45.04
6530;BME280;3298;42.688;23.366;2023-03-18T09:34:54;51733.47;;;-145.06;46.76
6530;BME280;3298;42.688;23.366;2023-03-18T09:37:21;51733.47;;;-145.06;46.78
6530;BME280;3298;42.688;23.366;2023-03-18T09:39:48;51737.56;;;-145.06;46.73
6530;BME280;3298;42.688;23.366;2023-03-18T09:42:30;51729.38;;;-145.06;46.94
6530;BME280;3298;42.688;23.366;2023-03-18T09:45:08;51753.94;;;-145.06;46.41
6530;BME280;3298;42.688;23.366;2023-03-18T09:48:00;51753.94;;;-145.06;46.18
6530;BME280;3298;42.688;23.366;2023-03-18T09:50:39;51766.22;;;-145.06;45.61
6530;BME280;3298;42.688;23.366;2023-03-18T09:53:17;51725.28;;;-145.06;45.29
6530;BME280;3298;42.688;23.366;2023-03-18T09:55:47;51751.88;;;-145.06;46.08
6530;BME280;3298;42.688;23.366;2023-03-18T09:58:21;51727.31;;;-145.06;46.03
6530;BME280;3298;42.688;23.366;2023-03-18T10:00:52;51749.84;;;-145.06;46.31
6530;BME280;3298;42.688;23.366;2023-03-18T10:03:28;51741.66;;;-145.06;45.80
6530;BME280;3298;42.688;23.366;2023-03-18T10:06:02;51753.94;;;-145.06;45.34
6530;BME280;3298;42.688;23.366;2023-03-18T10:08:40;51751.88;;;-145.06;44.85
6530;BME280;3298;42.688;23.366;2023-03-18T10:11:16;51766.22;;;-145.06;44.88
6530;BME280;3298;42.688;23.366;2023-03-18T10:13:51;51751.88;;;-145.06;44.75
6530;BME280;3298;42.688;23.366;2023-03-18T10:16:22;51745.75;;;-145.06;45.26
6530;BME280;3298;42.688;23.366;2023-03-18T10:18:52;51766.22;;;-145.06;44.63
6530;BME280;3298;42.688;23.366;2023-03-18T10:21:29;51751.88;;;-145.06;43.66
6530;BME280;3298;42.688;23.366;2023-03-18T10:24:08;51762.13;;;-145.06;43.38
6530;BME280;3298;42.688;23.366;2023-03-18T10:26:46;51762.13;;;-145.06;43.92
6530;BME280;3298;42.688;23.366;2023-03-18T10:29:30;51766.22;;;-145.06;43.25
6530;BME280;3298;42.688;23.366;2023-03-18T10:32:07;51737.56;;;-145.06;43.21
6530;BME280;3298;42.688;23.366;2023-03-18T10:34:40;51743.69;;;-145.06;42.03
6530;BME280;3298;42.688;23.366;2023-03-18T10:37:17;51737.56;;;-145.06;41.55
6530;BME280;3298;42.688;23.366;2023-03-18T10:39:45;51729.38;;;-145.06;41.33
6530;BME280;3298;42.688;23.366;2023-03-18T10:42:18;51772.34;;;-145.06;40.81
6530;BME280;3298;42.688;23.366;2023-03-18T10:44:46;51751.88;;;-145.06;41.24
6530;BME280;3298;42.688;23.366;2023-03-18T10:47:16;51766.22;;;-145.06;41.25
6530;BME280;3298;42.688;23.366;2023-03-18T10:49:49;51731.41;;;-145.06;40.80
6530;BME280;3298;42.688;23.366;2023-03-18T10:52:30;51731.41;;;-145.06;39.91
6530;BME280;3298;42.688;23.366;2023-03-18T10:54:59;51737.56;;;-145.06;38.21
6530;BME280;3298;42.688;23.366;2023-03-18T10:57:25;51753.94;;;-145.06;37.80
6530;BME280;3298;42.688;23.366;2023-03-18T10:59:52;51737.56;;;-145.06;37.25
6530;BME280;3298;42.688;23.366;2023-03-18T11:02:25;51762.13;;;-145.06;37.43
6530;BME280;3298;42.688;23.366;2023-03-18T11:04:58;51764.16;;;-145.06;36.65
6530;BME280;3298;42.688;23.366;2023-03-18T11:07:30;51721.19;;;-145.06;38.92
6530;BME280;3298;42.688;23.366;2023-03-18T11:10:11;51717.09;;;-145.06;40.23
6530;BME280;3298;42.688;23.366;2023-03-18T11:12:39;51784.63;;;-145.06;40.62
6530;BME280;3298;42.688;23.366;2023-03-18T11:15:09;51479.69;;;-145.06;34.21
6530;BME280;3298;42.688;23.366;2023-03-18T11:17:37;51346.66;;;-145.06;29.67
6530;BME280;3298;42.688;23.366;2023-03-18T11:20:17;51266.84;;;-145.06;26.34
6530;BME280;3298;42.688;23.366;2023-03-18T11:22:49;51410.09;;;-145.06;24.38
6530;BME280;3298;42.688;23.366;2023-03-18T11:25:18;51719.13;;;-145.06;23.95
6530;BME280;3298;42.688;23.366;2023-03-18T11:27:48;51925.84;;;-145.06;23.82
6530;BME280;3298;42.688;23.366;2023-03-18T11:30:18;51848.09;;;-145.06;28.03
6530;BME280;3298;42.688;23.366;2023-03-18T11:32:56;51708.91;;;-145.06;25.59
6530;BME280;3298;42.688;23.366;2023-03-18T11:35:24;51690.47;;;-145.06;24.15
6530;BME280;3298;42.688;23.366;2023-03-18T11:38:01;51674.09;;;-145.06;23.99
6530;BME280;3298;42.688;23.366;2023-03-18T11:40:28;51792.81;;;-145.06;27.83
6530;BME280;3298;42.688;23.366;2023-03-18T11:42:57;51784.63;;;-145.06;31.03
6530;BME280;3298;42.688;23.366;2023-03-18T11:45:41;51780.53;;;-145.06;31.94
6530;BME280;3298;42.688;23.366;2023-03-18T11:48:15;51764.16;;;-145.06;32.40
6530;BME280;3298;42.688;23.366;2023-03-18T11:50:52;51788.72;;;-145.06;32.59
6530;BME280;3298;42.688;23.366;2023-03-18T11:53:26;51762.13;;;-145.06;33.22
6530;BME280;3298;42.688;23.366;2023-03-18T11:55:59;51782.59;;;-145.06;33.80
6530;BME280;3298;42.688;23.366;2023-03-18T11:58:55;51772.34;;;-145.06;34.32
6530;BME280;3298;42.688;23.366;2023-03-18T12:01:29;51753.94;;;-145.06;37.30
6530;BME280;3298;42.688;23.366;2023-03-18T12:04:28;51778.50;;;-145.06;35.61
6530;BME280;3298;42.688;23.366;2023-03-18T12:07:14;51749.84;;;-145.06;35.14
6530;BME280;3298;42.688;23.366;2023-03-18T12:09:49;51774.41;;;-145.06;35.55
6530;BME280;3298;42.688;23.366;2023-03-18T12:12:34;51713.00;;;-145.06;35.42
6530;BME280;3298;42.688;23.366;2023-03-18T12:15:11;51749.84;;;-145.06;35.78
6530;BME280;3298;42.688;23.366;2023-03-18T12:17:44;51762.13;;;-145.06;35.79
6530;BME280;3298;42.688;23.366;2023-03-18T12:20:35;51762.13;;;-145.06;35.81
6530;BME280;3298;42.688;23.366;2023-03-18T12:23:12;51766.22;;;-145.06;35.48
6530;BME280;3298;42.688;23.366;2023-03-18T12:25:57;51780.53;;;-145.06;35.55
6530;BME280;3298;42.688;23.366;2023-03-18T12:28:51;51803.06;;;-145.06;35.22
6530;BME280;3298;42.688;23.366;2023-03-18T12:34:31;51776.44;;;-145.06;35.05
6530;BME280;3298;42.688;23.366;2023-03-18T12:37:14;51776.44;;;-145.06;35.37
6530;BME280;3298;42.688;23.366;2023-03-18T12:40:03;51766.22;;;-145.06;35.57
6530;BME280;3298;42.688;23.366;2023-03-18T12:42:47;51788.72;;;-145.06;35.09
6530;BME280;3298;42.688;23.366;2023-03-18T12:45:20;51753.94;;;-145.06;35.46
6530;BME280;3298;42.688;23.366;2023-03-18T12:47:53;51786.69;;;-145.06;35.39
6530;BME280;3298;42.688;23.366;2023-03-18T12:50:25;51737.56;;;-145.06;34.97
6530;BME280;3298;42.688;23.366;2023-03-18T12:52:55;51782.59;;;-145.06;34.44
6530;BME280;3298;42.688;23.366;2023-03-18T12:55:28;51741.66;;;-145.06;34.45
6530;BME280;3298;42.688;23.366;2023-03-18T12:58:00;51784.63;;;-145.06;34.66
6530;BME280;3298;42.688;23.366;2023-03-18T13:00:30;51753.94;;;-145.06;34.31
6530;BME280;3298;42.688;23.366;2023-03-18T13:03:01;51749.84;;;-145.06;33.96
6530;BME280;3298;42.688;23.366;2023-03-18T13:05:37;51794.88;;;-145.06;34.53
6530;BME280;3298;42.688;23.366;2023-03-18T13:14:40;51753.94;;;-145.06;34.40